createdAt,value
2022-11-23T00:01:24.809Z,94.44
2022-11-23T00:03:54.377Z,94.64
2022-11-23T00:06:23.419Z,94.68
2022-11-23T00:08:52.093Z,94.73
2022-11-23T00:11:21.517Z,94.66
2022-11-23T00:13:49.229Z,94.69
2022-11-23T00:16:19.467Z,94.54
2022-11-23T00:18:48.052Z,94.49
2022-11-23T00:21:18.303Z,94.46
2022-11-23T00:23:46.429Z,94.52
2022-11-23T00:26:14.963Z,94.39
2022-11-23T00:28:43.116Z,94.39
2022-11-23T00:31:13.150Z,94.45
2022-11-23T00:33:41.417Z,94.56
2022-11-23T00:36:12.716Z,94.60
2022-11-23T00:38:40.996Z,94.71
2022-11-23T00:41:10.873Z,94.65
2022-11-23T00:43:38.678Z,94.72
2022-11-23T00:46:10.954Z,94.75
2022-11-23T00:48:39.136Z,94.67
2022-11-23T00:51:09.462Z,94.52
2022-11-23T00:53:37.054Z,94.50
2022-11-23T00:56:06.121Z,94.45
2022-11-23T00:58:33.658Z,94.37
2022-11-23T01:01:15.587Z,94.36
2022-11-23T01:03:49.681Z,94.40
2022-11-23T01:06:23.321Z,94.36
2022-11-23T01:08:54.756Z,94.34
2022-11-23T01:11:24.186Z,94.50
2022-11-23T01:13:52.078Z,94.55
2022-11-23T01:16:24.122Z,94.51
2022-11-23T01:18:56.743Z,94.34
2022-11-23T01:21:25.732Z,94.46
2022-11-23T01:23:54.071Z,94.42
2022-11-23T01:26:22.267Z,94.55
2022-11-23T01:28:49.994Z,94.45
2022-11-23T01:31:19.855Z,94.37
2022-11-23T01:33:47.605Z,94.22
2022-11-23T01:36:17.998Z,94.23
2022-11-23T01:38:46.918Z,94.24
2022-11-23T01:41:18.158Z,94.22
2022-11-23T01:43:46.826Z,94.26
2022-11-23T01:46:14.733Z,94.28
2022-11-23T01:49:06.866Z,94.19
2022-11-23T01:51:41.521Z,94.18
2022-11-23T01:54:16.555Z,94.24
2022-11-23T01:57:10.765Z,94.26
2022-11-23T01:59:38.658Z,94.41
2022-11-23T02:02:06.833Z,94.46
2022-11-23T02:04:39.499Z,94.58
2022-11-23T02:07:07.658Z,94.59
2022-11-23T02:09:36.646Z,94.57
2022-11-23T02:12:10.716Z,94.72
2022-11-23T02:14:38.658Z,94.56
2022-11-23T02:17:06.221Z,94.46
2022-11-23T02:19:47.749Z,94.30
2022-11-23T02:22:28.658Z,94.45
2022-11-23T02:24:56.400Z,94.49
2022-11-23T02:27:27.045Z,94.54
2022-11-23T02:29:55.985Z,94.52
2022-11-23T02:32:24.973Z,94.40
2022-11-23T02:34:55.766Z,94.41
2022-11-23T02:37:23.538Z,94.29
2022-11-23T02:39:54.622Z,94.29
2022-11-23T02:42:23.759Z,94.33
2022-11-23T02:45:32.690Z,94.29
2022-11-23T02:48:01.386Z,94.20
2022-11-23T02:50:28.804Z,94.25
2022-11-23T02:52:56.344Z,94.12
2022-11-23T02:55:24.366Z,94.13
2022-11-23T02:57:53.022Z,94.24
2022-11-23T03:00:20.754Z,94.27
2022-11-23T03:02:48.555Z,94.07
2022-11-23T03:05:16.877Z,94.05
2022-11-23T03:07:44.308Z,94.29
2022-11-23T03:10:12.637Z,94.27
2022-11-23T03:12:40.062Z,94.35
2022-11-23T03:15:08.421Z,94.31
2022-11-23T03:17:37.557Z,94.28
2022-11-23T03:20:05.425Z,94.21
2022-11-23T03:22:34.130Z,94.22
2022-11-23T03:25:01.827Z,94.17
2022-11-23T03:27:31.346Z,94.25
2022-11-23T03:29:58.778Z,94.32
2022-11-23T03:32:26.917Z,94.41
2022-11-23T03:34:54.386Z,94.53
2022-11-23T03:37:22.175Z,94.49
2022-11-23T03:39:49.898Z,94.58
2022-11-23T03:42:18.677Z,94.65
2022-11-23T03:44:46.528Z,94.64
2022-11-23T03:47:15.451Z,94.68
2022-11-23T03:49:42.957Z,94.82
2022-11-23T03:52:10.450Z,94.85
2022-11-23T03:54:38.105Z,94.91
2022-11-23T03:57:05.570Z,94.90
2022-11-23T03:59:33.496Z,94.94
2022-11-23T04:02:01.441Z,95.01
2022-11-23T04:04:30.321Z,95.07
2022-11-23T04:06:58.280Z,95.07
2022-11-23T04:09:26.209Z,95.11
2022-11-23T04:11:55.634Z,95.11
2022-11-23T04:14:23.090Z,95.06
2022-11-23T04:16:50.554Z,95.16
2022-11-23T04:19:18.362Z,95.09
2022-11-23T04:21:46.008Z,95.06
2022-11-23T04:24:13.738Z,95.04
2022-11-23T04:26:41.715Z,95.06
2022-11-23T04:29:09.311Z,95.04
2022-11-23T04:31:37.450Z,94.98
2022-11-23T04:34:06.207Z,95.00
2022-11-23T04:36:34.013Z,95.02
2022-11-23T04:39:03.813Z,94.97
2022-11-23T04:41:32.247Z,94.86
2022-11-23T04:43:59.877Z,94.97
2022-11-23T04:46:27.884Z,94.94
2022-11-23T04:48:55.707Z,94.89
2022-11-23T04:51:23.203Z,94.85
2022-11-23T04:53:51.029Z,94.85
2022-11-23T04:56:19.097Z,94.98
2022-11-23T04:58:47.583Z,95.07
2022-11-23T05:01:15.134Z,95.10
2022-11-23T05:03:43.710Z,95.36
2022-11-23T05:06:11.393Z,95.22
2022-11-23T05:08:39.602Z,95.23
2022-11-23T05:11:09.843Z,95.12
2022-11-23T05:13:38.303Z,95.01
2022-11-23T05:16:06.175Z,94.89
2022-11-23T05:18:34.381Z,94.96
2022-11-23T05:21:01.843Z,94.95
2022-11-23T05:23:30.360Z,95.05
2022-11-23T05:25:58.654Z,95.04
2022-11-23T05:28:41.991Z,95.01
2022-11-23T05:31:10.229Z,95.08
2022-11-23T05:33:38.205Z,94.95
2022-11-23T05:36:06.195Z,94.84
2022-11-23T05:38:34.369Z,94.74
2022-11-23T05:41:02.641Z,94.84
2022-11-23T05:43:31.000Z,94.74
2022-11-23T05:46:00.459Z,94.79
2022-11-23T05:48:28.678Z,94.77
2022-11-23T05:50:58.659Z,94.77
2022-11-23T05:53:32.106Z,94.63
2022-11-23T05:56:01.607Z,94.58
2022-11-23T05:58:30.389Z,94.58
2022-11-23T06:01:02.076Z,94.48
2022-11-23T06:03:30.458Z,94.59
2022-11-23T06:06:00.207Z,94.51
2022-11-23T06:08:27.827Z,94.46
2022-11-23T06:10:55.810Z,94.31
2022-11-23T06:13:23.640Z,94.26
2022-11-23T06:15:51.209Z,94.26
2022-11-23T06:18:20.173Z,94.21
2022-11-23T06:20:47.906Z,94.10
2022-11-23T06:23:15.356Z,94.14
2022-11-23T06:25:43.571Z,94.13
2022-11-23T06:28:11.352Z,93.88
2022-11-23T06:30:39.004Z,93.84
2022-11-23T06:33:07.491Z,93.87
2022-11-23T06:35:35.567Z,94.00
2022-11-23T06:38:03.097Z,94.08
2022-11-23T06:40:31.314Z,94.13
2022-11-23T06:43:01.906Z,94.16
2022-11-23T06:45:29.819Z,94.13
2022-11-23T06:47:58.730Z,94.13
2022-11-23T06:50:26.364Z,94.15
2022-11-23T06:52:58.160Z,94.22
2022-11-23T06:55:26.565Z,94.01
2022-11-23T06:57:54.198Z,93.87
2022-11-23T07:00:21.894Z,94.00
2022-11-23T07:02:54.463Z,93.84
2022-11-23T07:05:23.853Z,93.98
2022-11-23T07:07:51.686Z,93.90
2022-11-23T07:10:20.798Z,93.89
2022-11-23T07:12:48.874Z,93.83
2022-11-23T07:15:17.272Z,93.80
2022-11-23T07:17:45.212Z,93.77
2022-11-23T07:20:13.567Z,93.84
2022-11-23T07:22:41.660Z,93.94
2022-11-23T07:25:09.623Z,94.08
2022-11-23T07:27:37.619Z,94.04
2022-11-23T07:30:06.079Z,94.09
2022-11-23T07:32:34.295Z,94.02
2022-11-23T07:35:01.849Z,94.01
2022-11-23T07:37:29.825Z,94.00
2022-11-23T07:39:58.431Z,93.95
2022-11-23T07:42:38.194Z,94.10
2022-11-23T07:45:09.786Z,94.13
2022-11-23T07:47:38.344Z,94.24
2022-11-23T07:50:10.336Z,94.17
2022-11-23T07:52:38.915Z,94.11
2022-11-23T07:55:06.971Z,94.09
2022-11-23T07:57:34.412Z,94.05
2022-11-23T08:00:02.571Z,94.09
2022-11-23T08:02:52.847Z,94.00
2022-11-23T08:05:28.227Z,94.06
2022-11-23T08:08:00.191Z,93.87
2022-11-23T08:10:29.546Z,94.09
2022-11-23T08:12:58.562Z,94.27
2022-11-23T08:15:28.203Z,94.21
2022-11-23T08:18:03.608Z,94.27
2022-11-23T08:20:31.671Z,94.12
2022-11-23T08:22:59.702Z,94.04
2022-11-23T08:25:29.572Z,94.12
2022-11-23T08:28:04.492Z,94.00
2022-11-23T08:30:33.870Z,94.12
2022-11-23T08:33:05.345Z,94.06
2022-11-23T08:35:37.695Z,93.98
2022-11-23T08:38:06.461Z,93.97
2022-11-23T08:40:34.701Z,93.97
2022-11-23T08:43:02.146Z,93.97
2022-11-23T08:45:30.127Z,94.04
2022-11-23T08:48:02.479Z,93.89
2022-11-23T08:50:30.798Z,93.68
2022-11-23T08:52:59.718Z,93.84
2022-11-23T08:55:28.403Z,93.80
2022-11-23T08:57:59.917Z,93.68
2022-11-23T09:00:28.605Z,93.64
2022-11-23T09:03:00.003Z,93.72
2022-11-23T09:05:29.042Z,93.89
2022-11-23T09:08:00.093Z,93.81
2022-11-23T09:10:28.361Z,93.87
2022-11-23T09:12:55.821Z,93.74
2022-11-23T09:15:23.226Z,93.81
2022-11-23T09:17:51.053Z,93.73
2022-11-23T09:20:18.550Z,93.47
2022-11-23T09:22:54.471Z,93.18
2022-11-23T09:25:23.006Z,92.93
2022-11-23T09:27:56.566Z,92.99
2022-11-23T09:30:24.305Z,92.89
2022-11-23T09:32:51.724Z,92.82
2022-11-23T09:35:19.110Z,92.80
2022-11-23T09:37:46.768Z,92.66
2022-11-23T09:40:17.593Z,92.65
2022-11-23T09:43:30.265Z,92.56
2022-11-23T09:46:08.618Z,92.42
2022-11-23T09:48:39.031Z,92.35
2022-11-23T09:51:26.990Z,92.57
2022-11-23T09:54:04.672Z,92.47
2022-11-23T09:56:38.390Z,92.27
2022-11-23T09:59:23.982Z,91.98
2022-11-23T10:01:51.800Z,91.85
2022-11-23T10:04:20.545Z,92.06
2022-11-23T10:07:13.846Z,91.87
2022-11-23T10:09:47.558Z,91.44
2022-11-23T10:12:26.762Z,91.11
2022-11-23T10:15:14.176Z,91.29
2022-11-23T10:18:03.807Z,91.28
2022-11-23T10:20:43.599Z,91.31
2022-11-23T10:23:40.689Z,91.43
2022-11-23T10:26:20.827Z,91.16
2022-11-23T10:28:49.749Z,91.32
2022-11-23T10:31:21.141Z,91.37
2022-11-23T10:34:19.550Z,91.29
2022-11-23T10:36:47.251Z,91.44
2022-11-23T10:39:26.137Z,91.46
2022-11-23T10:41:58.759Z,91.09
2022-11-23T10:44:37.859Z,91.05
2022-11-23T10:47:05.882Z,91.11
2022-11-23T10:49:35.160Z,91.56
2022-11-23T10:52:05.917Z,91.61
2022-11-23T10:54:39.311Z,91.51
2022-11-23T10:57:28.806Z,91.36
2022-11-23T11:00:17.395Z,90.92
2022-11-23T11:02:47.691Z,90.78
2022-11-23T11:08:29.239Z,91.12
2022-11-23T11:11:06.801Z,91.27
2022-11-23T11:13:46.553Z,91.18
2022-11-23T11:16:25.464Z,91.22
2022-11-23T11:18:53.446Z,91.47
2022-11-23T11:21:27.492Z,91.31
2022-11-23T11:24:00.521Z,91.55
2022-11-23T11:26:31.415Z,91.21
2022-11-23T11:29:03.065Z,90.94
2022-11-23T11:31:46.413Z,91.11
2022-11-23T11:34:13.798Z,91.10
2022-11-23T11:36:50.287Z,90.93
2022-11-23T11:39:25.990Z,91.16
2022-11-23T11:41:58.184Z,91.08
2022-11-23T11:44:27.428Z,91.22
2022-11-23T11:47:06.476Z,91.55
2022-11-23T11:49:42.795Z,91.58
2022-11-23T11:52:28.510Z,91.51
2022-11-23T11:55:14.080Z,91.16
2022-11-23T11:58:08.886Z,91.08
2022-11-23T12:00:43.538Z,91.16
2022-11-23T12:03:18.268Z,91.04
2022-11-23T12:05:51.241Z,91.12
2022-11-23T12:08:31.949Z,91.09
2022-11-23T12:11:02.258Z,90.96
2022-11-23T12:13:35.231Z,91.02
2022-11-23T12:16:05.332Z,90.83
2022-11-23T12:18:48.363Z,90.74
2022-11-23T12:21:21.606Z,90.74
2022-11-23T12:24:30.653Z,90.51
2022-11-23T12:27:05.942Z,90.10
2022-11-23T12:29:36.294Z,90.24
2022-11-23T12:32:25.161Z,90.05
2022-11-23T12:35:21.966Z,90.12
2022-11-23T12:37:52.339Z,90.31
2022-11-23T12:40:20.190Z,90.37
2022-11-23T12:42:58.359Z,90.15
2022-11-23T12:45:25.961Z,90.21
2022-11-23T12:48:02.850Z,89.91
2022-11-23T12:50:38.835Z,90.09
2022-11-23T12:53:43.167Z,90.13
2022-11-23T12:56:10.793Z,90.49
2022-11-23T12:58:39.742Z,90.39
2022-11-23T13:01:07.159Z,90.63
2022-11-23T13:04:12.161Z,90.84
2022-11-23T13:07:12.402Z,90.62
2022-11-23T13:09:56.509Z,90.56
2022-11-23T13:12:32.509Z,90.49
2022-11-23T13:15:37.295Z,90.59
2022-11-23T13:18:38.802Z,90.59
2022-11-23T13:21:37.635Z,90.76
2022-11-23T13:24:23.972Z,90.58
2022-11-23T13:27:13.667Z,90.25
2022-11-23T13:29:49.903Z,90.47
2022-11-23T13:32:51.893Z,90.26
2022-11-23T13:35:19.240Z,90.96
2022-11-23T13:37:55.823Z,90.73
2022-11-23T13:40:27.520Z,90.42
2022-11-23T13:43:02.658Z,90.32
2022-11-23T13:45:36.548Z,90.38
2022-11-23T13:48:19.293Z,90.12
2022-11-23T13:50:53.695Z,90.26
2022-11-23T13:53:29.090Z,89.95
2022-11-23T13:56:15.766Z,89.62
2022-11-23T13:58:52.811Z,89.69
2022-11-23T14:01:57.744Z,90.04
2022-11-23T14:04:37.270Z,90.29
2022-11-23T14:07:11.415Z,90.51
2022-11-23T14:10:04.050Z,90.36
2022-11-23T14:12:57.055Z,90.30
2022-11-23T14:15:29.179Z,90.22
2022-11-23T14:18:15.463Z,90.04
2022-11-23T14:21:04.333Z,90.08
2022-11-23T14:23:43.674Z,90.05
2022-11-23T14:26:20.379Z,89.61
2022-11-23T14:28:59.738Z,89.63
2022-11-23T14:31:59.564Z,89.72
2022-11-23T14:35:01.522Z,89.88
2022-11-23T14:37:50.449Z,90.01
2022-11-23T14:40:27.491Z,89.37
2022-11-23T14:42:57.253Z,89.75
2022-11-23T14:45:29.941Z,89.66
2022-11-23T14:47:57.751Z,89.58
2022-11-23T14:50:28.200Z,89.45
2022-11-23T14:52:59.111Z,89.72
2022-11-23T14:55:29.409Z,89.96
2022-11-23T14:58:06.205Z,89.68
2022-11-23T15:00:40.087Z,89.29
2022-11-23T15:03:48.682Z,89.33
2022-11-23T15:06:15.097Z,89.21
2022-11-23T15:09:08.179Z,89.46
2022-11-23T15:11:38.351Z,89.42
2022-11-23T15:14:18.964Z,89.04
2022-11-23T15:16:47.682Z,89.52
2022-11-23T15:19:23.802Z,89.20
2022-11-23T15:21:51.566Z,88.91
2022-11-23T15:24:25.038Z,88.96
2022-11-23T15:26:53.898Z,89.11
2022-11-23T15:29:51.630Z,89.02
2022-11-23T15:32:33.793Z,89.06
2022-11-23T15:35:07.343Z,88.98
2022-11-23T15:37:44.995Z,88.98
2022-11-23T15:40:18.377Z,88.95
2022-11-23T15:42:48.970Z,89.43
2022-11-23T15:45:56.147Z,89.39
2022-11-23T15:48:31.114Z,89.34
2022-11-23T15:51:01.269Z,89.61
2022-11-23T15:53:32.263Z,89.64
2022-11-23T15:56:02.951Z,89.50
2022-11-23T15:58:31.658Z,89.50
2022-11-23T16:01:13.820Z,89.41
2022-11-23T16:03:52.790Z,89.71
2022-11-23T16:06:42.937Z,90.20
2022-11-23T16:09:54.264Z,89.72
2022-11-23T16:12:30.207Z,89.85
2022-11-23T16:15:18.695Z,89.76
2022-11-23T16:17:46.226Z,89.50
2022-11-23T16:20:16.682Z,89.82
2022-11-23T16:22:49.742Z,89.26
2022-11-23T16:25:23.325Z,89.29
2022-11-23T16:28:01.646Z,89.31
2022-11-23T16:30:44.861Z,89.25
2022-11-23T16:33:17.851Z,89.01
2022-11-23T16:35:46.430Z,89.47
2022-11-23T16:38:13.866Z,89.43
2022-11-23T16:40:42.192Z,89.40
2022-11-23T16:43:13.256Z,89.08
2022-11-23T16:45:46.005Z,88.96
2022-11-23T16:48:42.661Z,88.82
2022-11-23T16:51:11.731Z,88.99
2022-11-23T16:54:11.363Z,88.57
2022-11-23T16:56:29.276Z,88.50
2022-11-23T16:58:57.450Z,89.00
2022-11-23T17:01:27.774Z,88.91
2022-11-23T17:03:55.572Z,88.98
2022-11-23T17:06:23.430Z,88.56
2022-11-23T17:08:58.495Z,88.68
2022-11-23T17:11:29.670Z,88.85
2022-11-23T17:13:57.362Z,89.02
2022-11-23T17:16:26.947Z,88.67
2022-11-23T17:18:54.867Z,88.36
2022-11-23T17:21:22.327Z,88.24
2022-11-23T17:23:49.771Z,88.32
2022-11-23T17:26:27.098Z,88.42
2022-11-23T17:28:54.815Z,88.47
2022-11-23T17:31:22.646Z,88.45
2022-11-23T17:33:50.200Z,88.60
2022-11-23T17:36:18.098Z,88.61
2022-11-23T17:38:49.414Z,88.45
2022-11-23T17:41:17.088Z,88.39
2022-11-23T17:43:44.566Z,88.40
2022-11-23T17:46:19.163Z,88.03
2022-11-23T17:48:49.970Z,88.18
2022-11-23T17:51:17.724Z,88.38
2022-11-23T17:53:45.932Z,88.62
2022-11-23T17:56:23.145Z,88.46
2022-11-23T17:58:52.518Z,88.12
2022-11-23T18:01:21.756Z,88.00
2022-11-23T18:03:50.638Z,88.05
2022-11-23T18:06:21.976Z,88.08
2022-11-23T18:08:51.021Z,88.46
2022-11-23T18:11:19.619Z,88.57
2022-11-23T18:13:48.802Z,88.28
2022-11-23T18:16:18.916Z,88.33
2022-11-23T18:18:46.672Z,93.81
2022-11-23T18:21:14.643Z,96.30
2022-11-23T18:23:42.676Z,96.79
2022-11-23T18:26:22.008Z,91.60
2022-11-23T18:28:50.056Z,78.24
2022-11-23T18:31:18.209Z,78.78
2022-11-23T18:33:46.880Z,80.49
2022-11-23T18:36:14.673Z,81.79
2022-11-23T18:38:45.835Z,82.83
2022-11-23T18:41:16.363Z,83.79
2022-11-23T18:43:45.214Z,87.38
2022-11-23T18:46:19.519Z,85.52
2022-11-23T18:48:49.294Z,85.14
2022-11-23T18:51:18.052Z,85.08
2022-11-23T18:53:47.785Z,85.69
2022-11-23T18:56:16.037Z,86.15
2022-11-23T18:58:45.046Z,86.28
2022-11-23T19:01:13.052Z,86.23
2022-11-23T19:03:42.416Z,86.40
2022-11-23T19:06:14.439Z,86.61
2022-11-23T19:08:47.998Z,86.76
2022-11-23T19:11:20.722Z,86.83
2022-11-23T19:13:51.334Z,86.74
2022-11-23T19:16:30.266Z,86.68
2022-11-23T19:19:03.868Z,86.78
2022-11-23T19:21:33.457Z,86.81
2022-11-23T19:24:01.632Z,87.09
2022-11-23T19:26:30.370Z,87.48
2022-11-23T19:28:58.742Z,87.24
2022-11-23T19:31:28.860Z,87.15
2022-11-23T19:33:58.694Z,87.04
2022-11-23T19:36:27.719Z,87.44
2022-11-23T19:38:57.287Z,87.59
2022-11-23T19:41:29.791Z,87.53
2022-11-23T19:44:00.088Z,87.44
2022-11-23T19:46:29.537Z,87.61
2022-11-23T19:48:57.718Z,87.53
2022-11-23T19:51:27.583Z,87.60
2022-11-23T19:53:57.724Z,87.65
2022-11-23T19:56:27.652Z,87.62
2022-11-23T19:58:57.944Z,87.61
2022-11-23T20:01:28.524Z,87.56
2022-11-23T20:03:57.945Z,87.72
2022-11-23T20:06:28.204Z,87.94
2022-11-23T20:09:01.446Z,87.87
2022-11-23T20:11:31.166Z,87.78
2022-11-23T20:13:59.130Z,87.98
2022-11-23T20:16:28.798Z,87.92
2022-11-23T20:18:59.138Z,88.03
2022-11-23T20:21:28.986Z,87.91
2022-11-23T20:24:05.189Z,87.98
2022-11-23T20:26:36.191Z,88.02
2022-11-23T20:29:05.264Z,87.98
2022-11-23T20:31:34.134Z,87.93
2022-11-23T20:34:04.118Z,87.75
2022-11-23T20:36:35.978Z,87.62
2022-11-23T20:39:09.686Z,87.71
2022-11-23T20:41:38.285Z,87.65
2022-11-23T20:44:15.137Z,87.30
2022-11-23T20:49:31.668Z,87.95
2022-11-23T20:52:00.311Z,88.19
2022-11-23T20:54:27.800Z,88.32
2022-11-23T20:56:55.288Z,88.69
2022-11-23T20:59:24.031Z,88.72
2022-11-23T21:01:52.208Z,88.71
2022-11-23T21:04:19.617Z,88.48
2022-11-23T21:06:47.305Z,88.55
2022-11-23T21:09:16.250Z,88.51
2022-11-23T21:12:02.706Z,88.56
2022-11-23T21:14:32.905Z,88.58
2022-11-23T21:17:00.957Z,88.61
2022-11-23T21:19:30.941Z,88.40
2022-11-23T21:22:02.532Z,88.60
2022-11-23T21:24:30.072Z,88.37
2022-11-23T21:26:57.585Z,88.40
2022-11-23T21:29:26.233Z,88.29
2022-11-23T21:31:53.822Z,88.20
2022-11-23T21:34:23.803Z,88.43
2022-11-23T21:36:53.311Z,88.22
2022-11-23T21:39:21.512Z,88.40
2022-11-23T21:41:50.506Z,88.76
2022-11-23T21:44:18.741Z,88.58
2022-11-23T21:46:46.315Z,88.60
2022-11-23T21:49:13.983Z,88.61
2022-11-23T21:51:42.786Z,88.83
2022-11-23T21:54:14.229Z,88.92
2022-11-23T21:56:43.869Z,89.03
2022-11-23T21:59:12.436Z,89.12
2022-11-23T22:01:40.261Z,89.17
2022-11-23T22:04:13.154Z,88.96
2022-11-23T22:06:42.079Z,88.76
2022-11-23T22:09:10.987Z,88.97
2022-11-23T22:11:41.237Z,89.15
2022-11-23T22:14:14.595Z,89.01
2022-11-23T22:16:49.994Z,89.12
2022-11-23T22:19:17.922Z,88.80
2022-11-23T22:21:46.835Z,89.04
2022-11-23T22:24:16.837Z,89.10
2022-11-23T22:26:45.400Z,89.13
2022-11-23T22:29:13.325Z,89.29
2022-11-23T22:31:41.194Z,89.19
2022-11-23T22:34:11.807Z,89.22
2022-11-23T22:36:39.550Z,88.97
2022-11-23T22:39:07.765Z,89.19
2022-11-23T22:41:39.259Z,89.30
2022-11-23T22:44:09.802Z,89.36
2022-11-23T22:46:38.764Z,89.39
2022-11-23T22:49:06.493Z,89.57
2022-11-23T22:51:34.201Z,89.44
2022-11-23T22:54:01.898Z,89.77
2022-11-23T22:56:30.769Z,89.93
2022-11-23T22:58:59.171Z,89.68
2022-11-23T23:01:29.505Z,89.69
2022-11-23T23:03:59.207Z,89.68
2022-11-23T23:06:29.302Z,89.66
2022-11-23T23:09:01.316Z,89.44
2022-11-23T23:11:31.468Z,89.34
2022-11-23T23:13:59.318Z,89.30
2022-11-23T23:16:27.277Z,89.20
2022-11-23T23:18:56.829Z,88.89
2022-11-23T23:21:25.896Z,88.64
2022-11-23T23:23:55.987Z,88.46
2022-11-23T23:26:25.488Z,88.09
2022-11-23T23:28:57.909Z,87.62
2022-11-23T23:31:26.636Z,87.75
2022-11-23T23:33:54.057Z,87.28
2022-11-23T23:36:22.795Z,87.24
2022-11-23T23:38:51.427Z,86.97
2022-11-23T23:41:19.282Z,87.02
2022-11-23T23:43:48.223Z,86.84
2022-11-23T23:46:16.806Z,87.02
2022-11-23T23:48:44.801Z,87.07
2022-11-23T23:51:17.687Z,86.93
2022-11-23T23:53:45.994Z,86.72
2022-11-23T23:56:16.760Z,86.61
2022-11-23T23:58:44.550Z,86.54
